Time;durP1;ratioP1;P1;durP2;ratioP2;P2;SDS_P1;SDS_P2;PMS_P1;PMS_P2;Temp;Humidity;BMP_temperature;BMP_pressure;BME280_temperature;BME280_humidity;BME280_pressure;Samples;Min_cycle;Max_cycle;Signal;HPM_P1;HPM_P2
2023/09/24 00:02:09;;;;;;;3.42;1.50;;;;;;;;;;10234036;28;20537;-80
2023/09/24 00:07:25;;;;;;;3.60;1.50;;;;;;;;;;10238415;28;20440;-79
2023/09/24 00:12:30;;;;;;;2.90;1.40;;;;;;;;;;10237353;28;20477;-81
2023/09/24 00:17:38;;;;;;;3.63;1.40;;;;;;;;;;10244263;28;20664;-81
2023/09/24 00:22:49;;;;;;;2.33;1.50;;;;;;;;;;10247910;28;20461;-80
2023/09/24 00:27:54;;;;;;;2.50;1.33;;;;;;;;;;10257693;28;20461;-79
2023/09/24 00:33:04;;;;;;;3.80;1.42;;;;;;;;;;10267087;28;20433;-80
2023/09/24 00:43:47;;;;;;;3.80;1.45;;;;;;;;;;10259040;28;20866;-79
2023/09/24 00:49:05;;;;;;;3.22;1.45;;;;;;;;;;10255753;28;20452;-80
2023/09/24 00:54:16;;;;;;;3.92;1.52;;;;;;;;;;10262797;28;20469;-79
2023/09/24 00:59:23;;;;;;;3.53;1.27;;;;;;;;;;10275048;28;20433;-80
2023/09/24 01:04:29;;;;;;;2.63;1.50;;;;;;;;;;10255272;28;20859;-80
2023/09/24 01:09:44;;;;;;;3.95;1.58;;;;;;;;;;10254785;28;20438;-79
2023/09/24 01:15:02;;;;;;;4.03;1.60;;;;;;;;;;10230795;28;20475;-79
2023/09/24 01:20:15;;;;;;;2.58;1.55;;;;;;;;;;10242650;28;20943;-78
2023/09/24 01:25:24;;;;;;;3.63;1.80;;;;;;;;;;10240025;28;20468;-78
2023/09/24 01:30:36;;;;;;;3.25;1.50;;;;;;;;;;10240167;28;20551;-79
2023/09/24 01:35:49;;;;;;;2.27;1.50;;;;;;;;;;10238645;28;20431;-80
2023/09/24 01:41:12;;;;;;;3.08;1.42;;;;;;;;;;10243218;28;20460;-80
2023/09/24 01:46:21;;;;;;;4.53;1.70;;;;;;;;;;10242183;28;20489;-79
2023/09/24 01:51:25;;;;;;;3.65;1.58;;;;;;;;;;10231745;28;20433;-79
2023/09/24 01:56:31;;;;;;;3.20;1.50;;;;;;;;;;10239647;28;20953;-80
2023/09/24 02:01:45;;;;;;;4.63;1.70;;;;;;;;;;10237402;28;20434;-79
2023/09/24 02:07:03;;;;;;;4.25;1.90;;;;;;;;;;10238851;28;20436;-80
2023/09/24 02:12:21;;;;;;;4.20;1.70;;;;;;;;;;10238615;28;20452;-80
2023/09/24 02:17:53;;;;;;;4.53;2.00;;;;;;;;;;10231660;28;20492;-79
2023/09/24 02:23:06;;;;;;;4.13;1.98;;;;;;;;;;10250674;28;20433;-81
2023/09/24 02:28:24;;;;;;;2.90;1.70;;;;;;;;;;10222520;28;20796;-79
2023/09/24 02:33:50;;;;;;;3.05;1.70;;;;;;;;;;10236413;28;20432;-79
2023/09/24 02:38:57;;;;;;;3.40;1.75;;;;;;;;;;10232394;28;20456;-79
2023/09/24 02:44:12;;;;;;;3.10;1.73;;;;;;;;;;10231894;28;20967;-79
2023/09/24 02:49:41;;;;;;;4.07;1.80;;;;;;;;;;10232050;28;20987;-79
2023/09/24 02:54:45;;;;;;;4.75;1.77;;;;;;;;;;10230872;28;20509;-79
2023/09/24 03:00:02;;;;;;;3.33;1.90;;;;;;;;;;10232422;28;20438;-79
2023/09/24 03:05:24;;;;;;;4.67;1.70;;;;;;;;;;10231376;28;20433;-79
2023/09/24 03:10:31;;;;;;;3.60;1.80;;;;;;;;;;10234955;28;20606;-80
2023/09/24 03:15:36;;;;;;;4.10;1.80;;;;;;;;;;10235811;28;20433;-79
2023/09/24 03:20:54;;;;;;;3.55;1.90;;;;;;;;;;10238176;28;20435;-80
2023/09/24 03:26:00;;;;;;;2.93;1.70;;;;;;;;;;10233340;28;20429;-79
2023/09/24 03:31:17;;;;;;;2.80;1.98;;;;;;;;;;10238744;28;20432;-80
2023/09/24 03:36:34;;;;;;;4.20;2.00;;;;;;;;;;10235191;28;20437;-78
2023/09/24 03:41:42;;;;;;;4.00;2.00;;;;;;;;;;10236069;28;20443;-79
2023/09/24 03:46:49;;;;;;;4.38;1.77;;;;;;;;;;10232815;28;20427;-80
2023/09/24 03:51:59;;;;;;;3.20;2.00;;;;;;;;;;10237978;28;20460;-81
2023/09/24 03:57:14;;;;;;;4.90;2.00;;;;;;;;;;10236477;28;20441;-78
2023/09/24 04:02:21;;;;;;;3.53;2.00;;;;;;;;;;10236950;28;20530;-79
2023/09/24 04:07:37;;;;;;;4.17;2.13;;;;;;;;;;10220246;28;20445;-78
2023/09/24 04:12:54;;;;;;;4.45;2.17;;;;;;;;;;10250296;28;20446;-78
2023/09/24 04:18:03;;;;;;;4.53;2.28;;;;;;;;;;10233815;28;20436;-78
2023/09/24 04:23:11;;;;;;;5.07;2.33;;;;;;;;;;10231459;28;20437;-79
2023/09/24 04:28:22;;;;;;;5.20;2.35;;;;;;;;;;10234010;28;20461;-78
2023/09/24 04:33:41;;;;;;;3.13;2.20;;;;;;;;;;10234156;28;20942;-79
2023/09/24 04:39:18;;;;;;;7.60;2.40;;;;;;;;;;10236118;28;20438;-79
2023/09/24 04:49:58;;;;;;;4.88;2.80;;;;;;;;;;10236140;28;20434;-79
2023/09/24 04:55:19;;;;;;;5.10;2.50;;;;;;;;;;10223452;28;20485;-80
2023/09/24 05:00:34;;;;;;;5.47;2.78;;;;;;;;;;10235831;28;20890;-80
2023/09/24 05:05:50;;;;;;;6.53;2.70;;;;;;;;;;10233607;28;20493;-78
2023/09/24 05:11:12;;;;;;;5.23;2.80;;;;;;;;;;10233793;28;20441;-79
2023/09/24 05:16:21;;;;;;;5.13;2.47;;;;;;;;;;10232223;28;20430;-79
2023/09/24 05:21:34;;;;;;;5.20;2.58;;;;;;;;;;10231553;28;20445;-77
2023/09/24 05:26:56;;;;;;;5.63;2.50;;;;;;;;;;10237996;28;20800;-79
2023/09/24 05:32:02;;;;;;;4.38;2.50;;;;;;;;;;10233033;28;20517;-79
2023/09/24 05:37:10;;;;;;;5.03;2.22;;;;;;;;;;10230972;28;20422;-80
2023/09/24 05:47:52;;;;;;;3.80;2.30;;;;;;;;;;10483110;27;21059;-79
2023/09/24 05:52:55;;;;;;;5.03;2.30;;;;;;;;;;10445054;28;20513;-79
2023/09/24 05:57:58;;;;;;;4.10;2.30;;;;;;;;;;10446309;28;20432;-78
2023/09/24 06:03:02;;;;;;;4.55;2.10;;;;;;;;;;10438890;28;20487;-79
2023/09/24 06:08:06;;;;;;;3.83;2.08;;;;;;;;;;10438037;28;20530;-79
2023/09/24 06:13:08;;;;;;;7.00;2.47;;;;;;;;;;10444123;28;20489;-79
2023/09/24 06:18:13;;;;;;;3.10;1.70;;;;;;;;;;10435474;28;20458;-79
2023/09/24 06:23:16;;;;;;;2.47;1.67;;;;;;;;;;10446638;28;20465;-79
2023/09/24 06:28:19;;;;;;;2.95;1.52;;;;;;;;;;10448571;28;20675;-80
2023/09/24 06:33:23;;;;;;;3.30;1.87;;;;;;;;;;10443324;28;20429;-79
2023/09/24 06:38:26;;;;;;;3.07;1.77;;;;;;;;;;10433021;28;20471;-78
2023/09/24 06:43:29;;;;;;;3.83;1.90;;;;;;;;;;10441846;28;20460;-79
2023/09/24 06:48:33;;;;;;;3.00;1.70;;;;;;;;;;10436796;28;20538;-80
2023/09/24 06:53:38;;;;;;;2.75;1.65;;;;;;;;;;10443178;28;20917;-80
2023/09/24 06:58:41;;;;;;;3.47;1.80;;;;;;;;;;10413463;28;20427;-79
2023/09/24 07:03:47;;;;;;;4.13;2.00;;;;;;;;;;10414249;28;20458;-80
2023/09/24 07:08:51;;;;;;;3.50;1.75;;;;;;;;;;10418417;28;20446;-81
2023/09/24 07:13:53;;;;;;;3.20;1.90;;;;;;;;;;10414595;28;20427;-80
2023/09/24 07:18:58;;;;;;;3.90;1.80;;;;;;;;;;10421222;28;20426;-80
2023/09/24 07:24:01;;;;;;;5.40;2.10;;;;;;;;;;10408009;28;20440;-80
2023/09/24 07:29:04;;;;;;;3.00;1.90;;;;;;;;;;10417415;28;20941;-79
2023/09/24 07:34:09;;;;;;;2.77;1.90;;;;;;;;;;10413693;28;20439;-79
2023/09/24 07:39:12;;;;;;;3.28;1.90;;;;;;;;;;10412105;28;20715;-80
2023/09/24 07:44:15;;;;;;;5.30;2.10;;;;;;;;;;10408901;28;20500;-78
2023/09/24 07:49:19;;;;;;;3.10;1.80;;;;;;;;;;10405953;28;20441;-80
2023/09/24 07:54:22;;;;;;;4.07;1.90;;;;;;;;;;10408935;28;20422;-81
2023/09/24 07:59:25;;;;;;;3.37;2.07;;;;;;;;;;10405980;28;20442;-80
2023/09/24 08:04:29;;;;;;;4.43;2.07;;;;;;;;;;10412020;28;20519;-81
2023/09/24 08:09:32;;;;;;;4.73;2.00;;;;;;;;;;10408672;28;20418;-77
2023/09/24 08:14:35;;;;;;;3.53;1.70;;;;;;;;;;10402607;28;20415;-77
2023/09/24 08:19:39;;;;;;;5.82;2.10;;;;;;;;;;10415062;28;20451;-77
2023/09/24 08:24:42;;;;;;;5.80;1.90;;;;;;;;;;10403795;28;20863;-79
2023/09/24 08:29:45;;;;;;;4.72;1.85;;;;;;;;;;10414265;28;20490;-81
2023/09/24 08:34:49;;;;;;;4.00;1.90;;;;;;;;;;10414590;28;20521;-82
2023/09/24 08:39:52;;;;;;;4.00;1.93;;;;;;;;;;10399550;28;20976;-80
2023/09/24 08:45:04;;;;;;;3.80;1.50;;;;;;;;;;10403216;28;21003;-81
2023/09/24 08:50:08;;;;;;;3.00;1.60;;;;;;;;;;10403586;28;20446;-80
2023/09/24 08:55:12;;;;;;;5.37;2.00;;;;;;;;;;10404378;28;20461;-80
2023/09/24 09:00:15;;;;;;;3.08;1.50;;;;;;;;;;10420884;28;20995;-81
2023/09/24 09:05:22;;;;;;;3.40;1.63;;;;;;;;;;10401230;28;20428;-81
2023/09/24 09:10:26;;;;;;;4.40;1.73;;;;;;;;;;10403126;28;20434;-80
2023/09/24 09:15:29;;;;;;;5.32;1.80;;;;;;;;;;10399674;28;20425;-81
2023/09/24 09:20:43;;;;;;;4.45;1.80;;;;;;;;;;10401687;28;20426;-81
2023/09/24 09:25:47;;;;;;;4.53;2.25;;;;;;;;;;10406555;28;20526;-82
2023/09/24 09:31:03;;;;;;;3.70;1.67;;;;;;;;;;10409324;28;20426;-82
2023/09/24 09:36:20;;;;;;;4.45;1.98;;;;;;;;;;10405204;28;20504;-80
2023/09/24 09:41:24;;;;;;;3.80;1.90;;;;;;;;;;10405100;28;20775;-81
2023/09/24 09:46:27;;;;;;;5.35;2.10;;;;;;;;;;10411537;28;20438;-81
2023/09/24 09:51:33;;;;;;;4.53;2.40;;;;;;;;;;10399662;28;20467;-81
2023/09/24 09:56:36;;;;;;;3.08;2.10;;;;;;;;;;10404744;28;20505;-81
2023/09/24 10:01:39;;;;;;;2.75;1.30;;;;;;;;;;10407680;28;20518;-82
2023/09/24 10:06:43;;;;;;;3.23;1.50;;;;;;;;;;10406100;28;20437;-82
2023/09/24 10:11:55;;;;;;;4.87;1.90;;;;;;;;;;10399667;28;20912;-80
2023/09/24 10:17:20;;;;;;;3.57;2.00;;;;;;;;;;10411250;28;20421;-81
2023/09/24 10:22:31;;;;;;;4.65;1.80;;;;;;;;;;10418595;28;20441;-82
2023/09/24 10:27:34;;;;;;;2.70;1.90;;;;;;;;;;10422384;28;20425;-81
2023/09/24 10:32:47;;;;;;;2.43;1.70;;;;;;;;;;10420786;28;21199;-81
2023/09/24 10:37:59;;;;;;;4.45;2.20;;;;;;;;;;10446616;28;20513;-80
2023/09/24 10:43:17;;;;;;;2.88;1.73;;;;;;;;;;10439342;28;20484;-80
2023/09/24 10:48:21;;;;;;;3.47;2.20;;;;;;;;;;10445299;28;20426;-80
2023/09/24 10:53:39;;;;;;;3.20;2.10;;;;;;;;;;10430722;28;20506;-81
2023/09/24 10:58:48;;;;;;;3.20;1.50;;;;;;;;;;10442078;28;20427;-81
2023/09/24 11:03:51;;;;;;;2.80;1.40;;;;;;;;;;10434748;28;20437;-81
2023/09/24 11:08:56;;;;;;;4.20;1.70;;;;;;;;;;10422259;28;20420;-78
2023/09/24 11:14:12;;;;;;;4.93;1.60;;;;;;;;;;10414052;28;20564;-78
2023/09/24 11:19:15;;;;;;;3.65;1.90;;;;;;;;;;10413874;28;20429;-79
2023/09/24 11:24:19;;;;;;;4.20;2.00;;;;;;;;;;10412200;28;20570;-79
2023/09/24 11:29:22;;;;;;;2.43;1.83;;;;;;;;;;10404633;28;20799;-77
2023/09/24 11:34:25;;;;;;;3.88;2.00;;;;;;;;;;10429458;28;20439;-79
2023/09/24 11:39:29;;;;;;;4.50;2.10;;;;;;;;;;10408616;28;20784;-79
2023/09/24 11:44:45;;;;;;;3.03;2.10;;;;;;;;;;10415067;28;20436;-79
2023/09/24 11:49:47;;;;;;;2.93;1.70;;;;;;;;;;10413963;28;20607;-79
2023/09/24 11:54:51;;;;;;;3.30;1.30;;;;;;;;;;10408189;28;20427;-79
2023/09/24 11:59:55;;;;;;;2.38;1.40;;;;;;;;;;10415647;28;20435;-79
2023/09/24 12:04:57;;;;;;;3.33;1.80;;;;;;;;;;10406872;28;20987;-76
2023/09/24 12:10:02;;;;;;;2.35;1.70;;;;;;;;;;10414420;28;20517;-79
2023/09/24 12:15:05;;;;;;;2.70;1.70;;;;;;;;;;10417032;28;20821;-79
2023/09/24 12:20:09;;;;;;;2.22;1.63;;;;;;;;;;10414537;28;20442;-79
2023/09/24 12:25:12;;;;;;;3.13;2.00;;;;;;;;;;10410456;28;20426;-78
2023/09/24 12:30:15;;;;;;;4.10;1.80;;;;;;;;;;10411252;28;20455;-79
2023/09/24 12:35:18;;;;;;;3.72;2.00;;;;;;;;;;10414276;28;20435;-79
2023/09/24 12:40:22;;;;;;;3.60;1.80;;;;;;;;;;10404617;28;20433;-79
2023/09/24 12:45:25;;;;;;;2.60;1.70;;;;;;;;;;10412390;28;20853;-79
2023/09/24 12:50:28;;;;;;;2.60;1.70;;;;;;;;;;10417144;28;20438;-78
2023/09/24 12:55:32;;;;;;;3.22;1.80;;;;;;;;;;10416386;28;20508;-78
2023/09/24 13:00:35;;;;;;;2.60;1.50;;;;;;;;;;10405137;28;20417;-79
2023/09/24 13:05:38;;;;;;;3.10;1.70;;;;;;;;;;10404931;28;20432;-79
2023/09/24 13:10:42;;;;;;;2.47;1.58;;;;;;;;;;10408866;28;20902;-79
2023/09/24 13:15:46;;;;;;;2.22;1.58;;;;;;;;;;10411738;28;20426;-79
2023/09/24 13:20:49;;;;;;;3.75;1.90;;;;;;;;;;10411365;28;20459;-79
2023/09/24 13:25:54;;;;;;;2.63;1.50;;;;;;;;;;10405275;28;20431;-77
2023/09/24 13:30:57;;;;;;;3.07;1.70;;;;;;;;;;10403676;28;21009;-78
2023/09/24 13:36:00;;;;;;;3.00;1.50;;;;;;;;;;10406797;28;20443;-78
2023/09/24 13:41:05;;;;;;;2.13;1.20;;;;;;;;;;10409960;28;20445;-79
2023/09/24 13:46:08;;;;;;;2.03;1.45;;;;;;;;;;10412725;28;20794;-79
2023/09/24 13:51:12;;;;;;;2.08;1.38;;;;;;;;;;10410398;28;20829;-80
2023/09/24 13:56:17;;;;;;;2.80;1.30;;;;;;;;;;10408972;28;20900;-79
2023/09/24 14:01:19;;;;;;;2.20;1.30;;;;;;;;;;10395375;28;20529;-78
2023/09/24 14:06:22;;;;;;;1.92;1.20;;;;;;;;;;10411536;28;20507;-78
2023/09/24 14:16:48;;;;;;;2.20;1.10;;;;;;;;;;10414532;28;21270;-79
2023/09/24 14:21:51;;;;;;;4.33;1.47;;;;;;;;;;10412869;28;20915;-78
2023/09/24 14:26:55;;;;;;;3.60;1.42;;;;;;;;;;10413632;28;20481;-78
2023/09/24 14:31:58;;;;;;;3.40;1.15;;;;;;;;;;10402035;28;20449;-80
2023/09/24 14:37:00;;;;;;;3.65;1.60;;;;;;;;;;10415284;28;20955;-80
2023/09/24 14:42:04;;;;;;;4.00;1.30;;;;;;;;;;10415457;28;20968;-79
2023/09/24 14:47:07;;;;;;;3.00;1.40;;;;;;;;;;10422153;28;20475;-80
2023/09/24 14:52:10;;;;;;;3.95;1.48;;;;;;;;;;10416326;28;20516;-80
2023/09/24 14:57:14;;;;;;;3.40;1.40;;;;;;;;;;10406861;28;20456;-81
2023/09/24 15:02:17;;;;;;;2.75;1.20;;;;;;;;;;10411652;28;20461;-85
2023/09/24 15:07:20;;;;;;;4.43;1.60;;;;;;;;;;10410846;28;20973;-80
2023/09/24 15:12:24;;;;;;;2.53;1.38;;;;;;;;;;10419959;28;20431;-81
2023/09/24 15:17:27;;;;;;;4.77;1.87;;;;;;;;;;10417202;28;20853;-81
2023/09/24 15:22:30;;;;;;;2.78;1.27;;;;;;;;;;10412472;28;20775;-80
2023/09/24 15:27:34;;;;;;;1.90;1.17;;;;;;;;;;10413102;28;20909;-81
2023/09/24 15:32:36;;;;;;;1.93;1.10;;;;;;;;;;10417635;28;20835;-81
2023/09/24 15:37:39;;;;;;;3.60;1.25;;;;;;;;;;10415030;28;20438;-80
2023/09/24 15:42:44;;;;;;;2.67;1.40;;;;;;;;;;10413196;28;20485;-80
2023/09/24 15:47:47;;;;;;;2.25;1.23;;;;;;;;;;10416473;28;20500;-80
2023/09/24 15:52:50;;;;;;;4.43;1.40;;;;;;;;;;10421994;28;20425;-80
2023/09/24 15:57:55;;;;;;;3.30;1.90;;;;;;;;;;10424224;28;20435;-81
2023/09/24 16:02:58;;;;;;;3.58;1.70;;;;;;;;;;10422766;28;21198;-80
2023/09/24 16:08:01;;;;;;;3.00;1.45;;;;;;;;;;10406732;28;20429;-80
2023/09/24 16:13:05;;;;;;;4.57;1.50;;;;;;;;;;10413772;28;20424;-81
2023/09/24 16:18:09;;;;;;;4.70;1.63;;;;;;;;;;10411726;28;20425;-80
2023/09/24 16:23:12;;;;;;;3.67;1.48;;;;;;;;;;10417251;28;20423;-80
2023/09/24 16:28:16;;;;;;;3.75;1.45;;;;;;;;;;10413907;28;20413;-80
2023/09/24 16:33:19;;;;;;;4.28;1.52;;;;;;;;;;10425103;28;20460;-81
2023/09/24 16:38:22;;;;;;;3.50;1.40;;;;;;;;;;10415813;28;20489;-81
2023/09/24 16:43:27;;;;;;;3.43;1.30;;;;;;;;;;10423872;28;20427;-80
2023/09/24 16:48:31;;;;;;;3.80;1.63;;;;;;;;;;10422474;28;20518;-79
2023/09/24 16:53:34;;;;;;;5.13;1.90;;;;;;;;;;10410086;28;20439;-80
2023/09/24 16:58:39;;;;;;;4.80;1.60;;;;;;;;;;10418412;28;20496;-79
2023/09/24 17:31:03;;;;;;;4.30;1.60;;;;;;;;;;10004628;29;20493;-82
2023/09/24 17:57:05;;;;;;;6.05;2.13;;;;;;;;;;9941086;29;20506;-83
2023/09/24 19:59:47;;;;;;;8.50;2.60;;;;;;;;;;10122281;28;20512;-82
2023/09/24 20:04:50;;;;;;;6.85;2.78;;;;;;;;;;10331734;28;20440;-85
2023/09/24 20:09:56;;;;;;;6.47;2.47;;;;;;;;;;10336131;28;20483;-84
2023/09/24 20:15:03;;;;;;;4.43;2.20;;;;;;;;;;10343940;28;20454;-84
2023/09/24 20:20:11;;;;;;;4.80;2.20;;;;;;;;;;10344793;28;20587;-83
2023/09/24 20:25:29;;;;;;;4.63;2.25;;;;;;;;;;10349082;28;20897;-83
2023/09/24 20:36:12;;;;;;;6.43;2.10;;;;;;;;;;10470989;28;20452;-81
2023/09/24 20:41:21;;;;;;;5.72;2.25;;;;;;;;;;10509993;28;20459;-82
2023/09/24 20:46:32;;;;;;;5.15;2.22;;;;;;;;;;10539283;28;20426;-82
2023/09/24 20:51:42;;;;;;;5.80;2.10;;;;;;;;;;10483818;28;20680;-81
2023/09/24 21:02:26;;;;;;;3.55;1.98;;;;;;;;;;10524734;28;20441;-81
2023/09/24 21:07:49;;;;;;;5.97;2.40;;;;;;;;;;10505931;28;20405;-82
2023/09/24 21:12:59;;;;;;;3.88;1.70;;;;;;;;;;10503815;28;20883;-81
2023/09/24 21:18:22;;;;;;;5.33;2.03;;;;;;;;;;10486474;28;20489;-80
2023/09/24 21:23:36;;;;;;;3.90;1.80;;;;;;;;;;10503443;28;20437;-81
2023/09/24 21:28:46;;;;;;;5.23;2.17;;;;;;;;;;10489159;28;20473;-81
2023/09/24 21:34:08;;;;;;;4.82;2.00;;;;;;;;;;10488915;28;20428;-81
2023/09/24 21:39:58;;;;;;;2.88;1.70;;;;;;;;;;10495055;28;20788;-82
2023/09/24 21:45:07;;;;;;;4.97;2.37;;;;;;;;;;10459300;28;20432;-81
2023/09/24 21:50:20;;;;;;;5.28;2.08;;;;;;;;;;10494713;28;20777;-80
2023/09/24 21:55:30;;;;;;;4.38;1.90;;;;;;;;;;10463980;28;20488;-80
2023/09/24 22:00:42;;;;;;;4.63;2.03;;;;;;;;;;10500318;28;20933;-80
2023/09/24 22:05:47;;;;;;;4.97;1.83;;;;;;;;;;10481991;28;20521;-80
2023/09/24 22:11:00;;;;;;;5.65;1.88;;;;;;;;;;10497170;28;20422;-80
2023/09/24 22:16:12;;;;;;;4.95;1.90;;;;;;;;;;10482209;28;20526;-80
2023/09/24 22:21:26;;;;;;;5.35;1.90;;;;;;;;;;10481917;28;20421;-82
2023/09/24 22:26:38;;;;;;;5.07;2.20;;;;;;;;;;10489988;28;20427;-82
2023/09/24 22:32:15;;;;;;;4.63;2.10;;;;;;;;;;10490512;28;20426;-81
2023/09/24 22:37:28;;;;;;;4.45;2.10;;;;;;;;;;10504990;28;20442;-81
2023/09/24 22:42:35;;;;;;;4.57;2.17;;;;;;;;;;10481111;28;20421;-81
2023/09/24 22:47:50;;;;;;;3.93;2.03;;;;;;;;;;10497288;28;20466;-81
2023/09/24 22:53:13;;;;;;;4.40;2.00;;;;;;;;;;10491909;28;20457;-81
2023/09/24 22:58:41;;;;;;;4.20;2.17;;;;;;;;;;10501988;28;20807;-81
2023/09/24 23:03:54;;;;;;;5.07;2.20;;;;;;;;;;10491201;28;20816;-80
2023/09/24 23:09:17;;;;;;;4.97;2.28;;;;;;;;;;10480850;28;20422;-81
2023/09/24 23:14:24;;;;;;;6.82;2.47;;;;;;;;;;10500828;28;20421;-81
2023/09/24 23:19:42;;;;;;;6.03;2.42;;;;;;;;;;10477373;28;20421;-82
2023/09/24 23:25:08;;;;;;;5.70;2.50;;;;;;;;;;10502577;28;20438;-81
2023/09/24 23:30:29;;;;;;;5.15;2.40;;;;;;;;;;10477915;28;20434;-81
2023/09/24 23:35:44;;;;;;;5.07;2.22;;;;;;;;;;10506354;28;20499;-82
2023/09/24 23:40:56;;;;;;;5.65;2.58;;;;;;;;;;10480592;28;20427;-80
2023/09/24 23:46:10;;;;;;;5.30;2.60;;;;;;;;;;10490812;28;20435;-80
2023/09/24 23:51:16;;;;;;;4.05;2.17;;;;;;;;;;10498280;28;20426;-80
2023/09/24 23:56:20;;;;;;;5.50;2.17;;;;;;;;;;10499643;28;20516;-80
